createdAt,value
2022-12-13T00:01:21.787Z,107.34969
2022-12-13T00:16:24.060Z,14.12496
2022-12-13T00:31:58.756Z,1.88333
2022-12-13T00:47:02.591Z,0.94166
2022-12-13T01:02:04.843Z,0.94166
2022-12-13T01:17:07.136Z,0.94166
2022-12-13T01:32:09.401Z,0.94166
2022-12-13T01:47:11.618Z,0.94166
2022-12-13T02:02:13.839Z,0.94166
2022-12-13T02:17:16.016Z,0.94166
2022-12-13T02:32:18.276Z,0.94166
2022-12-13T02:47:22.153Z,0.94166
2022-12-13T03:02:31.574Z,0.94166
2022-12-13T03:17:34.323Z,0.94166
2022-12-13T03:32:36.516Z,0.94166
2022-12-13T03:47:38.733Z,0.94166
2022-12-13T04:02:41.029Z,0.94166
2022-12-13T04:17:43.463Z,0.94166
2022-12-13T04:32:53.500Z,0.94166
2022-12-13T04:47:55.695Z,0.94166
2022-12-13T05:02:57.990Z,0.94166
2022-12-13T05:18:00.241Z,0.94166
2022-12-13T05:33:02.522Z,0.94166
2022-12-13T05:48:04.718Z,0.94166
2022-12-13T06:03:07.043Z,0.94166
2022-12-13T06:18:09.380Z,0.94166
2022-12-13T06:33:11.565Z,0.94166
2022-12-13T06:48:20.067Z,0.94166
2022-12-13T07:03:22.706Z,0.94166
2022-12-13T07:18:24.924Z,0.94166
2022-12-13T07:33:27.169Z,0
2022-12-13T07:48:29.442Z,0
2022-12-13T08:03:31.659Z,0
2022-12-13T08:18:33.787Z,0
2022-12-13T08:33:35.988Z,0
2022-12-13T08:48:44.391Z,0
2022-12-13T09:03:47.380Z,0
2022-12-13T09:18:54.918Z,0
2022-12-13T09:33:58.224Z,0
2022-12-13T09:49:01.666Z,0
2022-12-13T10:04:04.287Z,0
2022-12-13T10:19:06.493Z,0
2022-12-13T10:34:30.750Z,0
2022-12-13T10:49:32.980Z,0
2022-12-13T11:04:35.218Z,0
2022-12-13T11:19:37.420Z,0
2022-12-13T11:34:39.670Z,0
2022-12-13T11:49:41.884Z,0
2022-12-13T12:04:44.265Z,0
2022-12-13T12:19:46.478Z,0
2022-12-13T12:34:48.798Z,0
2022-12-13T12:49:51.019Z,0
2022-12-13T13:04:53.232Z,0
2022-12-13T13:20:07.854Z,0
2022-12-13T13:35:13.686Z,0
2022-12-13T13:50:15.929Z,0
2022-12-13T14:05:18.163Z,0
2022-12-13T14:20:20.406Z,0
2022-12-13T14:35:26.144Z,0
2022-12-13T14:50:29.230Z,0
2022-12-13T15:05:31.445Z,0.94166
2022-12-13T15:20:33.735Z,17.89161
2022-12-13T15:35:36.006Z,140.30792
2022-12-13T15:50:41.044Z,369.13226
2022-12-13T16:05:47.714Z,793.82269
2022-12-13T16:20:50.019Z,1539.62048
2022-12-13T16:35:52.279Z,2198.78516
2022-12-13T16:50:57.741Z,2893.73315
2022-12-13T17:06:00.547Z,2923.86646
2022-12-13T17:21:02.727Z,3247.79883
2022-12-13T17:36:05.019Z,4545.41162
2022-12-13T17:51:07.367Z,5240.35986
2022-12-13T18:06:09.607Z,5805.35791
2022-12-13T18:21:11.857Z,7208.4375
2022-12-13T18:36:14.059Z,7141.5791
2022-12-13T18:51:16.269Z,8252.74219
2022-12-13T19:06:18.467Z,7941.99365
2022-12-13T19:21:20.696Z,7112.3877
2022-12-13T19:36:22.915Z,7492.81982
2022-12-13T19:51:25.139Z,6616.13086
2022-12-13T20:06:27.510Z,6187.67383
2022-12-13T20:21:29.847Z,7045.5293
2022-12-13T20:36:32.186Z,7079.4292
2022-12-13T20:51:34.672Z,7682.09424
2022-12-13T21:06:36.939Z,8163.28467
2022-12-13T21:21:39.237Z,6650.03076
2022-12-13T21:36:41.449Z,6025.70752
2022-12-13T21:51:47.800Z,5737.55811
2022-12-13T22:06:50.895Z,5349.59277
2022-12-13T22:21:53.123Z,5076.51025
2022-12-13T22:36:55.378Z,4153.67969
2022-12-13T22:51:57.608Z,2848.53345
2022-12-13T23:07:00.130Z,2008.56909
2022-12-13T23:22:02.327Z,1080.0885
2022-12-13T23:37:04.647Z,629.97314
2022-12-13T23:52:06.860Z,258.95758
